Time;durP1;ratioP1;P1;durP2;ratioP2;P2;SDS_P1;SDS_P2;PMS_P1;PMS_P2;Temp;Humidity;BMP_temperature;BMP_pressure;BME280_temperature;BME280_humidity;BME280_pressure;Samples;Min_cycle;Max_cycle;Signal;HPM_P1;HPM_P2
2022/07/14 00:01:38;;;;;;;0.52;0.50;;;21.90;57.50;;;;;;6173705;28;20069;-68
2022/07/14 00:04:39;;;;;;;0.50;0.50;;;21.90;57.50;;;;;;6173688;28;20402;-68
2022/07/14 00:07:40;;;;;;;0.80;0.50;;;21.90;57.50;;;;;;6174104;28;20030;-69
2022/07/14 00:10:40;;;;;;;0.85;0.63;;;21.90;57.50;;;;;;6173784;28;20039;-67
2022/07/14 00:13:41;;;;;;;0.93;0.60;;;21.90;57.50;;;;;;6173838;28;20021;-67
2022/07/14 00:16:42;;;;;;;0.60;0.50;;;21.90;57.50;;;;;;6173769;28;20025;-68
2022/07/14 00:19:42;;;;;;;1.00;0.60;;;21.90;57.50;;;;;;6172961;28;20035;-67
2022/07/14 00:22:43;;;;;;;0.40;0.40;;;21.90;57.50;;;;;;6173339;28;20039;-68
2022/07/14 00:25:43;;;;;;;0.95;0.60;;;21.90;57.50;;;;;;6173436;28;20244;-67
2022/07/14 00:28:44;;;;;;;0.50;0.50;;;21.90;57.50;;;;;;6173431;28;20078;-69
2022/07/14 00:31:45;;;;;;;0.50;0.50;;;21.90;57.50;;;;;;6173325;28;20042;-68
2022/07/14 00:34:45;;;;;;;0.52;0.52;;;21.90;57.50;;;;;;6173244;28;20498;-68
2022/07/14 00:37:46;;;;;;;0.65;0.60;;;21.90;57.50;;;;;;6173424;28;20078;-68
2022/07/14 00:40:47;;;;;;;0.40;0.40;;;21.90;57.50;;;;;;6173012;28;20110;-68
2022/07/14 00:43:48;;;;;;;0.77;0.55;;;21.90;57.50;;;;;;6173180;28;20030;-68
2022/07/14 00:46:48;;;;;;;0.60;0.57;;;21.90;57.50;;;;;;6172539;28;20098;-68
2022/07/14 00:49:52;;;;;;;0.57;0.40;;;21.90;57.50;;;;;;6172556;28;20062;-68
2022/07/14 00:52:53;;;;;;;0.50;0.47;;;21.90;57.50;;;;;;6173102;28;20022;-68
2022/07/14 00:55:54;;;;;;;0.50;0.50;;;21.90;57.50;;;;;;6172553;28;20035;-67
2022/07/14 00:58:55;;;;;;;0.52;0.43;;;21.90;57.50;;;;;;6172642;28;20382;-68
2022/07/14 01:01:55;;;;;;;0.65;0.65;;;21.90;57.50;;;;;;6172534;28;20022;-68
2022/07/14 01:04:56;;;;;;;0.30;0.30;;;21.90;57.50;;;;;;6172092;28;20026;-67
2022/07/14 01:07:56;;;;;;;0.40;0.40;;;21.90;57.50;;;;;;6172047;28;20027;-68
2022/07/14 01:10:57;;;;;;;0.88;0.50;;;21.90;57.50;;;;;;6172326;28;20035;-67
2022/07/14 01:14:02;;;;;;;0.57;0.50;;;21.90;57.50;;;;;;6172807;28;20094;-68
2022/07/14 01:17:03;;;;;;;;;;;21.90;57.50;;;;;;6172325;28;20034;-68
2022/07/14 01:20:05;;;;;;;0.65;0.50;;;21.90;57.50;;;;;;6172165;28;19910;-68
2022/07/14 01:23:05;;;;;;;0.50;0.50;;;21.90;57.50;;;;;;6172475;28;20029;-68
2022/07/14 01:26:06;;;;;;;0.70;0.50;;;21.90;57.50;;;;;;6172242;28;20023;-68
2022/07/14 01:29:07;;;;;;;0.50;0.50;;;21.90;57.50;;;;;;6171953;28;20093;-69
2022/07/14 01:32:07;;;;;;;0.77;0.50;;;21.90;57.60;;;;;;6171883;28;20363;-68
2022/07/14 01:35:09;;;;;;;0.40;0.40;;;21.90;57.50;;;;;;6171747;28;20044;-68
2022/07/14 01:38:09;;;;;;;0.57;0.57;;;21.90;57.50;;;;;;6172372;28;20492;-67
2022/07/14 01:41:10;;;;;;;0.50;0.50;;;21.90;57.50;;;;;;6171687;28;20031;-68
2022/07/14 01:44:10;;;;;;;0.57;0.45;;;21.90;57.50;;;;;;6172078;28;20028;-68
2022/07/14 01:47:11;;;;;;;0.75;0.43;;;21.90;57.50;;;;;;6171342;28;20027;-69
2022/07/14 01:50:13;;;;;;;0.40;0.40;;;21.90;57.50;;;;;;6171275;28;20066;-68
2022/07/14 01:53:14;;;;;;;0.50;0.50;;;21.90;57.60;;;;;;6171048;28;20109;-68
2022/07/14 01:56:14;;;;;;;0.75;0.60;;;21.90;57.50;;;;;;6171783;28;20035;-68
2022/07/14 01:59:15;;;;;;;0.40;0.40;;;21.90;57.60;;;;;;6171370;28;20107;-68
2022/07/14 02:02:15;;;;;;;0.40;0.40;;;21.90;57.50;;;;;;6171501;28;20031;-67
2022/07/14 02:05:16;;;;;;;0.50;0.50;;;21.90;57.50;;;;;;6171194;28;20054;-69
2022/07/14 02:08:17;;;;;;;0.60;0.60;;;21.90;57.50;;;;;;6171244;28;20034;-68
2022/07/14 02:14:37;;;;;;;0.35;0.35;;;21.90;57.50;;;;;;6170945;28;20493;-67
2022/07/14 02:17:38;;;;;;;0.60;0.50;;;21.90;57.60;;;;;;6170937;28;20243;-69
2022/07/14 02:20:38;;;;;;;0.50;0.50;;;21.90;57.50;;;;;;6170243;28;20041;-68
2022/07/14 02:23:39;;;;;;;0.40;0.40;;;21.90;57.60;;;;;;6170509;28;20026;-68
2022/07/14 02:26:41;;;;;;;0.50;0.50;;;21.90;57.60;;;;;;6170487;28;20053;-68
2022/07/14 02:29:42;;;;;;;0.50;0.50;;;21.90;57.50;;;;;;6170679;28;20062;-68
2022/07/14 02:32:42;;;;;;;0.68;0.50;;;21.90;57.60;;;;;;6170190;28;20030;-68
2022/07/14 02:35:43;;;;;;;0.57;0.50;;;21.90;57.60;;;;;;6170984;28;20126;-68
2022/07/14 02:38:43;;;;;;;0.70;0.50;;;21.90;57.60;;;;;;6170753;28;20055;-68
2022/07/14 02:41:44;;;;;;;0.50;0.50;;;21.90;57.60;;;;;;6170543;28;20062;-68
2022/07/14 02:44:45;;;;;;;0.70;0.40;;;21.90;57.50;;;;;;6170408;28;20482;-68
2022/07/14 02:47:45;;;;;;;0.47;0.47;;;21.90;57.50;;;;;;6170308;28;20027;-68
2022/07/14 02:50:46;;;;;;;0.60;0.50;;;21.90;57.60;;;;;;6169821;28;20409;-68
2022/07/14 02:53:47;;;;;;;0.82;0.65;;;21.90;57.60;;;;;;6170656;28;20030;-68
2022/07/14 02:56:47;;;;;;;0.47;0.47;;;21.90;57.60;;;;;;6170352;28;20049;-67
2022/07/14 02:59:48;;;;;;;0.63;0.50;;;21.90;57.60;;;;;;6170253;28;20046;-68
2022/07/14 03:02:48;;;;;;;0.40;0.40;;;21.90;57.60;;;;;;6169916;28;20030;-68
2022/07/14 03:05:50;;;;;;;1.17;0.50;;;21.90;57.60;;;;;;6169838;28;20077;-68
2022/07/14 03:08:51;;;;;;;0.60;0.60;;;21.90;57.60;;;;;;6170110;28;20468;-67
2022/07/14 03:11:51;;;;;;;0.38;0.38;;;21.90;57.60;;;;;;6169776;28;20042;-67
2022/07/14 03:14:52;;;;;;;0.63;0.60;;;21.90;57.60;;;;;;6170145;28;20027;-68
2022/07/14 03:17:53;;;;;;;0.57;0.57;;;21.90;57.60;;;;;;6169976;28;20119;-68
2022/07/14 03:20:54;;;;;;;0.50;0.50;;;21.90;57.60;;;;;;6170233;28;20034;-67
2022/07/14 03:23:54;;;;;;;0.52;0.52;;;21.90;57.60;;;;;;6169903;28;20034;-68
2022/07/14 03:26:55;;;;;;;0.60;0.60;;;21.90;57.60;;;;;;6169760;28;20034;-67
2022/07/14 03:29:56;;;;;;;0.60;0.52;;;21.90;57.60;;;;;;6170473;28;20094;-68
2022/07/14 03:32:56;;;;;;;0.43;0.43;;;21.90;57.60;;;;;;6174209;28;20042;-67
2022/07/14 03:35:57;;;;;;;0.45;0.40;;;21.90;57.60;;;;;;6175228;28;20027;-68
2022/07/14 03:38:58;;;;;;;0.65;0.65;;;21.90;57.60;;;;;;6174568;28;20110;-67
2022/07/14 03:41:58;;;;;;;0.88;0.70;;;21.90;57.60;;;;;;6174503;28;20498;-68
2022/07/14 03:44:59;;;;;;;0.60;0.52;;;21.90;57.60;;;;;;6174140;28;20042;-67
2022/07/14 03:47:59;;;;;;;0.60;0.60;;;21.90;57.60;;;;;;6174056;28;20130;-68
2022/07/14 03:51:00;;;;;;;0.47;0.47;;;21.90;57.60;;;;;;6174052;28;20039;-67
2022/07/14 03:54:01;;;;;;;1.15;0.80;;;21.90;57.60;;;;;;6174509;28;20102;-68
2022/07/14 03:57:03;;;;;;;0.45;0.40;;;21.90;57.60;;;;;;6173950;28;20737;-68
2022/07/14 04:00:04;;;;;;;0.43;0.43;;;21.90;57.60;;;;;;6174226;28;20510;-67
2022/07/14 04:03:05;;;;;;;0.70;0.52;;;21.90;57.60;;;;;;6174210;28;20046;-67
2022/07/14 04:06:06;;;;;;;0.70;0.70;;;21.90;57.60;;;;;;6173854;28;20029;-68
2022/07/14 04:09:06;;;;;;;0.40;0.40;;;21.90;57.60;;;;;;6174018;28;20099;-67
2022/07/14 04:12:07;;;;;;;0.60;0.50;;;21.90;57.70;;;;;;6173613;28;20500;-68
2022/07/14 04:15:08;;;;;;;0.50;0.50;;;21.90;57.60;;;;;;6173679;28;20027;-68
2022/07/14 04:18:09;;;;;;;0.70;0.50;;;21.90;57.60;;;;;;6174082;28;20365;-68
2022/07/14 04:21:10;;;;;;;1.15;0.50;;;21.90;57.60;;;;;;6173508;28;20026;-68
2022/07/14 04:24:11;;;;;;;0.93;0.70;;;21.90;57.60;;;;;;6173747;28;20315;-68
2022/07/14 04:27:12;;;;;;;0.63;0.50;;;21.90;57.60;;;;;;6173108;28;20030;-68
2022/07/14 04:30:14;;;;;;;0.60;0.60;;;21.90;57.70;;;;;;6173378;28;20081;-68
2022/07/14 04:33:18;;;;;;;0.50;0.47;;;21.90;57.60;;;;;;6173219;28;20050;-68
2022/07/14 04:36:19;;;;;;;0.50;0.50;;;21.90;57.70;;;;;;6173168;28;20038;-67
2022/07/14 04:39:19;;;;;;;0.65;0.55;;;21.90;57.60;;;;;;6172984;28;20454;-67
2022/07/14 04:42:21;;;;;;;0.63;0.50;;;21.90;57.70;;;;;;6172105;28;20023;-68
2022/07/14 04:45:22;;;;;;;1.20;0.70;;;21.90;57.70;;;;;;6172830;28;20025;-67
2022/07/14 04:48:24;;;;;;;0.68;0.50;;;21.90;57.70;;;;;;6172616;28;20134;-67
2022/07/14 04:54:45;;;;;;;0.45;0.45;;;21.90;57.70;;;;;;6172563;28;20482;-68
2022/07/14 04:57:46;;;;;;;0.52;0.50;;;21.90;57.60;;;;;;6172876;28;20041;-68
2022/07/14 05:00:47;;;;;;;0.60;0.60;;;21.90;57.70;;;;;;6163746;28;20059;-68
2022/07/14 05:03:48;;;;;;;0.50;0.50;;;21.90;57.60;;;;;;6188525;28;20047;-67
2022/07/14 05:06:49;;;;;;;0.75;0.50;;;21.90;57.70;;;;;;6190315;28;20038;-68
2022/07/14 05:09:50;;;;;;;0.55;0.50;;;21.90;57.70;;;;;;6196550;28;20031;-68
2022/07/14 05:12:51;;;;;;;0.88;0.73;;;21.90;57.80;;;;;;6195270;28;20064;-68
2022/07/14 05:15:52;;;;;;;0.50;0.50;;;22.00;57.60;;;;;;6196085;28;20030;-67
2022/07/14 05:18:52;;;;;;;0.60;0.50;;;22.00;57.60;;;;;;6177633;28;20509;-67
2022/07/14 05:21:53;;;;;;;0.63;0.60;;;22.00;57.70;;;;;;6195723;28;20023;-67
2022/07/14 05:24:54;;;;;;;2.20;0.60;;;22.00;57.80;;;;;;6196326;28;20445;-67
2022/07/14 05:27:54;;;;;;;4.20;0.60;;;22.00;58.10;;;;;;6193417;28;20405;-67
2022/07/14 05:31:01;;;;;;;0.75;0.43;;;22.00;57.90;;;;;;6195411;28;20081;-67
2022/07/14 05:34:02;;;;;;;1.20;0.50;;;22.00;57.90;;;;;;6175339;28;20033;-68
2022/07/14 05:37:03;;;;;;;2.50;0.60;;;21.90;57.80;;;;;;6175525;28;20389;-68
2022/07/14 05:40:04;;;;;;;2.17;0.70;;;22.00;57.90;;;;;;6196037;28;20026;-67
2022/07/14 05:43:05;;;;;;;1.42;0.52;;;22.00;57.80;;;;;;6183576;28;20026;-67
2022/07/14 05:46:10;;;;;;;3.10;0.60;;;22.00;57.80;;;;;;6171591;28;20030;-68
2022/07/14 05:49:11;;;;;;;1.58;0.60;;;21.90;57.70;;;;;;6190779;28;20046;-68
2022/07/14 05:52:13;;;;;;;0.50;0.45;;;22.00;57.90;;;;;;6193098;28;20449;-67
2022/07/14 05:55:13;;;;;;;0.90;0.60;;;21.90;57.80;;;;;;6189837;28;20542;-67
2022/07/14 05:58:14;;;;;;;3.33;0.77;;;22.00;57.80;;;;;;6195294;28;20053;-68
2022/07/14 06:01:17;;;;;;;2.03;0.75;;;22.00;57.80;;;;;;6196578;28;20093;-68
2022/07/14 06:04:18;;;;;;;3.00;0.80;;;22.00;57.70;;;;;;6197341;28;20022;-67
2022/07/14 06:07:18;;;;;;;2.55;0.60;;;22.00;57.70;;;;;;6197367;28;20093;-67
2022/07/14 06:10:19;;;;;;;1.35;0.73;;;22.00;57.70;;;;;;6197451;28;20030;-67
2022/07/14 06:13:19;;;;;;;4.75;0.70;;;22.00;57.70;;;;;;6197046;28;20374;-68
2022/07/14 06:16:20;;;;;;;1.15;0.63;;;22.00;57.70;;;;;;6197397;28;20023;-68
2022/07/14 06:19:21;;;;;;;0.77;0.70;;;22.00;57.70;;;;;;6180527;28;20484;-68
2022/07/14 06:22:21;;;;;;;1.63;0.57;;;22.00;57.70;;;;;;6173084;28;20027;-67
2022/07/14 06:25:22;;;;;;;0.55;0.50;;;21.90;57.70;;;;;;6171823;28;20046;-68
2022/07/14 06:28:23;;;;;;;1.77;0.80;;;21.90;57.70;;;;;;6186926;28;20023;-67
2022/07/14 06:31:23;;;;;;;1.27;0.57;;;21.90;57.60;;;;;;6172711;28;20031;-67
2022/07/14 06:34:24;;;;;;;0.80;0.68;;;21.90;57.60;;;;;;6187680;28;20113;-68
2022/07/14 06:37:25;;;;;;;2.70;0.80;;;21.90;57.60;;;;;;6196862;28;20092;-68
2022/07/14 06:40:26;;;;;;;1.38;0.80;;;21.90;57.60;;;;;;6156590;28;20371;-67
2022/07/14 06:43:26;;;;;;;1.25;0.70;;;21.90;57.60;;;;;;6178122;28;20026;-67
2022/07/14 06:46:28;;;;;;;1.02;0.55;;;21.90;57.60;;;;;;6196794;28;20034;-67
2022/07/14 06:49:28;;;;;;;1.55;0.80;;;21.90;57.70;;;;;;6182089;28;20049;-68
2022/07/14 06:52:29;;;;;;;1.65;0.90;;;21.90;57.70;;;;;;6172366;28;20023;-67
2022/07/14 06:55:30;;;;;;;1.30;0.70;;;21.90;57.60;;;;;;6192805;28;20488;-68
2022/07/14 06:58:30;;;;;;;1.35;0.65;;;21.90;57.60;;;;;;6196077;28;20026;-67
2022/07/14 07:01:32;;;;;;;2.47;0.93;;;21.90;57.60;;;;;;6196383;28;20023;-68
2022/07/14 07:04:32;;;;;;;4.88;0.90;;;21.90;57.70;;;;;;6195641;28;20036;-67
2022/07/14 07:07:34;;;;;;;1.80;0.77;;;21.90;57.70;;;;;;6196457;28;20034;-67
2022/07/14 07:10:40;;;;;;;0.85;0.52;;;21.90;57.60;;;;;;6176049;28;20027;-68
2022/07/14 07:13:41;;;;;;;1.48;0.70;;;21.90;57.60;;;;;;6175548;28;20406;-67
2022/07/14 07:16:44;;;;;;;1.23;0.80;;;21.90;57.70;;;;;;6196164;28;20054;-67
2022/07/14 07:19:45;;;;;;;2.50;0.90;;;21.90;57.70;;;;;;6184277;28;20015;-67
2022/07/14 07:22:45;;;;;;;1.65;0.80;;;21.90;57.70;;;;;;6172233;28;20026;-67
2022/07/14 07:25:46;;;;;;;1.13;0.68;;;21.90;57.70;;;;;;6190545;28;20105;-67
2022/07/14 07:28:47;;;;;;;0.77;0.70;;;21.90;57.70;;;;;;6196276;28;20039;-68
2022/07/14 07:31:47;;;;;;;0.80;0.60;;;21.90;57.70;;;;;;6195921;28;20553;-67
2022/07/14 07:34:48;;;;;;;1.55;0.60;;;21.90;57.70;;;;;;6185577;28;20031;-67
2022/07/14 07:37:49;;;;;;;0.95;0.65;;;21.90;57.70;;;;;;6171878;28;20426;-67
2022/07/14 07:40:49;;;;;;;0.70;0.52;;;21.90;57.70;;;;;;6189505;28;20026;-68
2022/07/14 07:43:50;;;;;;;1.27;0.70;;;21.90;57.70;;;;;;6194696;28;20469;-68
2022/07/14 07:46:51;;;;;;;0.98;0.70;;;21.90;57.70;;;;;;6172084;28;20097;-67
2022/07/14 07:49:52;;;;;;;1.38;0.77;;;21.90;57.70;;;;;;6179489;28;20046;-67
2022/07/14 07:52:53;;;;;;;1.17;0.60;;;21.90;57.70;;;;;;6196054;28;20031;-67
2022/07/14 07:55:54;;;;;;;1.48;0.52;;;21.90;57.70;;;;;;6186116;28;20167;-68
2022/07/14 07:58:54;;;;;;;1.42;0.70;;;21.90;57.70;;;;;;6171569;28;20058;-67
2022/07/14 08:01:55;;;;;;;0.85;0.65;;;21.90;57.70;;;;;;6195267;28;20053;-67
2022/07/14 08:04:55;;;;;;;0.55;0.50;;;21.90;57.70;;;;;;6188318;28;20042;-67
2022/07/14 08:07:56;;;;;;;0.70;0.60;;;21.90;57.70;;;;;;6171585;28;20019;-67
2022/07/14 08:10:57;;;;;;;0.68;0.65;;;21.90;57.70;;;;;;6185942;28;20053;-67
2022/07/14 08:13:57;;;;;;;0.80;0.50;;;21.90;58.40;;;;;;6195546;28;20030;-67
2022/07/14 08:16:59;;;;;;;1.05;0.68;;;21.90;57.70;;;;;;6173839;28;20027;-68
2022/07/14 08:19:59;;;;;;;0.50;0.50;;;21.90;57.70;;;;;;6181235;28;20026;-67
2022/07/14 08:23:00;;;;;;;0.68;0.63;;;21.90;57.70;;;;;;6199966;28;20493;-68
2022/07/14 08:26:01;;;;;;;0.57;0.57;;;21.90;57.70;;;;;;6189424;28;20342;-68
2022/07/14 08:29:02;;;;;;;1.08;0.60;;;21.90;57.70;;;;;;6199795;28;20023;-67
2022/07/14 08:32:03;;;;;;;0.68;0.45;;;21.90;57.70;;;;;;6198023;28;20045;-67
2022/07/14 08:35:06;;;;;;;0.65;0.65;;;21.90;57.70;;;;;;6199247;28;20041;-68
2022/07/14 08:38:07;;;;;;;0.90;0.73;;;21.90;57.70;;;;;;6200205;28;20029;-67
2022/07/14 08:41:10;;;;;;;0.57;0.57;;;21.90;57.70;;;;;;6187037;28;20442;-67
2022/07/14 08:44:12;;;;;;;0.50;0.50;;;21.90;57.70;;;;;;6175638;28;20038;-67
2022/07/14 08:47:13;;;;;;;1.30;0.70;;;21.90;57.70;;;;;;6195645;28;20018;-67
2022/07/14 08:50:19;;;;;;;1.75;0.82;;;21.90;57.70;;;;;;6177963;28;20437;-68
2022/07/14 08:53:20;;;;;;;0.98;0.60;;;21.90;57.70;;;;;;6178579;28;20468;-68
2022/07/14 08:56:21;;;;;;;1.30;0.70;;;21.90;57.70;;;;;;6198619;28;20030;-67
2022/07/14 08:59:22;;;;;;;0.63;0.55;;;21.90;57.70;;;;;;6198872;28;20031;-67
2022/07/14 09:02:23;;;;;;;0.75;0.60;;;21.90;57.70;;;;;;6179325;28;20834;-68
2022/07/14 09:05:23;;;;;;;0.80;0.63;;;21.90;57.70;;;;;;6177135;28;20015;-67
2022/07/14 09:08:24;;;;;;;1.20;0.63;;;21.90;57.70;;;;;;6198897;28;20450;-67
2022/07/14 09:11:24;;;;;;;0.90;0.73;;;21.90;57.70;;;;;;6187710;28;20039;-68
2022/07/14 09:14:27;;;;;;;0.80;0.65;;;21.90;57.70;;;;;;6175076;28;20015;-68
2022/07/14 09:17:29;;;;;;;0.80;0.60;;;21.90;57.70;;;;;;6192362;28;20030;-67
2022/07/14 09:20:32;;;;;;;0.80;0.60;;;21.90;57.60;;;;;;6197014;28;20102;-67
2022/07/14 09:23:35;;;;;;;1.10;0.68;;;21.90;57.70;;;;;;6174292;28;20049;-67
2022/07/14 09:26:44;;;;;;;0.57;0.57;;;21.90;57.70;;;;;;6190600;28;20023;-68
2022/07/14 09:29:54;;;;;;;0.80;0.52;;;21.90;57.70;;;;;;6173630;28;20081;-67
2022/07/14 09:33:04;;;;;;;0.55;0.50;;;21.90;57.70;;;;;;6193610;28;20038;-68
2022/07/14 09:36:05;;;;;;;0.60;0.60;;;21.90;57.70;;;;;;6193696;28;20023;-67
2022/07/14 09:39:10;;;;;;;0.60;0.55;;;21.90;57.70;;;;;;6174073;28;20061;-67
2022/07/14 09:42:11;;;;;;;1.17;0.50;;;21.90;57.70;;;;;;6186209;28;20085;-68
2022/07/14 09:45:14;;;;;;;0.77;0.40;;;21.90;57.70;;;;;;6197885;28;20422;-68
2022/07/14 09:48:17;;;;;;;0.70;0.65;;;21.90;57.70;;;;;;6177524;28;20047;-68
2022/07/14 09:51:17;;;;;;;0.93;0.70;;;21.90;57.70;;;;;;6177388;28;20057;-68
2022/07/14 09:54:37;;;;;;;0.82;0.50;;;21.90;57.70;;;;;;6197420;28;20027;-67
2022/07/14 09:57:39;;;;;;;1.02;0.70;;;21.90;58.40;;;;;;6196243;28;20054;-67
2022/07/14 10:00:41;;;;;;;0.60;0.40;;;21.90;57.70;;;;;;6197264;28;20031;-68
2022/07/14 10:03:45;;;;;;;0.70;0.60;;;21.90;57.70;;;;;;6197362;28;20088;-67
2022/07/14 10:06:47;;;;;;;0.73;0.60;;;21.90;57.70;;;;;;6191189;28;20418;-67
2022/07/14 10:10:09;;;;;;;0.80;0.60;;;21.90;57.70;;;;;;6172959;28;20122;-68
2022/07/14 10:13:11;;;;;;;1.38;0.55;;;21.90;57.70;;;;;;6189324;28;20489;-67
2022/07/14 10:16:15;;;;;;;0.68;0.50;;;21.90;57.70;;;;;;6197262;28;20603;-67
2022/07/14 10:19:17;;;;;;;0.52;0.50;;;21.90;57.80;;;;;;6187195;28;20579;-68
2022/07/14 10:22:20;;;;;;;1.00;0.55;;;21.90;57.70;;;;;;6188625;28;20030;-67
2022/07/14 10:25:21;;;;;;;0.50;0.50;;;21.90;57.70;;;;;;6194518;28;20476;-67
2022/07/14 10:28:22;;;;;;;0.55;0.40;;;21.90;57.70;;;;;;6195325;28;20038;-68
2022/07/14 10:31:47;;;;;;;1.38;0.60;;;21.90;57.70;;;;;;6195584;28;20037;-67
2022/07/14 10:35:18;;;;;;;1.00;0.53;;;21.90;57.70;;;;;;6172671;28;20034;-68
2022/07/14 10:38:26;;;;;;;0.60;0.60;;;21.90;57.70;;;;;;6186086;28;20097;-67
2022/07/14 10:41:45;;;;;;;0.57;0.50;;;21.90;57.70;;;;;;6195279;28;20069;-68
2022/07/14 10:44:47;;;;;;;0.40;0.40;;;21.90;57.70;;;;;;6196146;28;20022;-67
2022/07/14 10:47:53;;;;;;;0.50;0.50;;;21.90;57.70;;;;;;6196187;28;20114;-67
2022/07/14 10:51:21;;;;;;;0.40;0.40;;;21.90;57.70;;;;;;6195494;28;20048;-68
2022/07/14 10:54:25;;;;;;;0.88;0.60;;;21.90;57.80;;;;;;6195699;28;20165;-67
2022/07/14 10:57:26;;;;;;;0.57;0.50;;;21.90;57.70;;;;;;6196257;28;20014;-68
2022/07/14 11:00:42;;;;;;;0.57;0.50;;;21.90;57.70;;;;;;6195303;28;20442;-67
2022/07/14 11:03:44;;;;;;;1.13;0.57;;;21.90;57.70;;;;;;6196644;28;20031;-67
2022/07/14 11:06:45;;;;;;;0.90;0.80;;;21.90;57.70;;;;;;6196095;28;20053;-67
2022/07/14 11:09:45;;;;;;;1.05;0.55;;;21.90;57.80;;;;;;6195268;28;20031;-68
2022/07/14 11:13:04;;;;;;;0.60;0.60;;;21.90;57.70;;;;;;6195766;28;20020;-67
2022/07/14 11:16:05;;;;;;;0.80;0.52;;;21.90;57.80;;;;;;6195031;28;20046;-67
2022/07/14 11:19:36;;;;;;;0.52;0.50;;;21.90;57.70;;;;;;6195695;28;20496;-68
2022/07/14 11:22:37;;;;;;;0.85;0.60;;;21.90;57.70;;;;;;6178898;28;20042;-68
2022/07/14 11:25:38;;;;;;;3.33;0.60;;;21.90;57.70;;;;;;6195501;28;20489;-68
2022/07/14 11:28:50;;;;;;;2.38;0.50;;;21.90;57.70;;;;;;6195605;28;20037;-67
2022/07/14 11:31:53;;;;;;;0.55;0.47;;;21.90;57.70;;;;;;6194766;28;20401;-67
2022/07/14 11:38:26;;;;;;;0.55;0.50;;;21.90;57.70;;;;;;6195279;28;20026;-67
2022/07/14 11:41:42;;;;;;;0.50;0.50;;;21.90;57.70;;;;;;6195044;28;20078;-68
2022/07/14 11:44:45;;;;;;;0.40;0.40;;;22.00;57.90;;;;;;6194907;28;20061;-68
2022/07/14 11:47:49;;;;;;;2.53;0.70;;;22.00;57.70;;;;;;6186522;28;20026;-67
2022/07/14 11:50:49;;;;;;;0.80;0.70;;;22.00;57.70;;;;;;6191831;28;20088;-68
2022/07/14 11:53:59;;;;;;;1.23;0.90;;;22.00;57.60;;;;;;6182825;28;20018;-68
2022/07/14 11:57:06;;;;;;;1.10;0.90;;;22.00;57.60;;;;;;6197003;28;20030;-67
2022/07/14 12:00:09;;;;;;;1.00;0.80;;;22.00;57.60;;;;;;6198153;28;20038;-67
2022/07/14 12:03:15;;;;;;;1.67;1.00;;;22.00;57.70;;;;;;6198318;28;20035;-66
2022/07/14 12:06:17;;;;;;;0.90;0.75;;;22.00;57.70;;;;;;6198461;28;20018;-67
2022/07/14 12:09:28;;;;;;;1.65;0.82;;;22.00;57.60;;;;;;6198476;28;20033;-68
2022/07/14 12:12:41;;;;;;;1.25;0.82;;;22.00;57.70;;;;;;6198789;28;20034;-67
2022/07/14 12:15:41;;;;;;;1.42;0.90;;;22.00;57.70;;;;;;6198212;28;20027;-67
2022/07/14 12:18:43;;;;;;;1.63;1.10;;;22.00;57.60;;;;;;6184536;28;20042;-67
2022/07/14 12:21:43;;;;;;;2.05;0.98;;;22.00;57.70;;;;;;6194344;28;20021;-67
2022/07/14 12:24:45;;;;;;;1.58;0.93;;;22.00;57.70;;;;;;6186585;28;20026;-68
2022/07/14 12:27:46;;;;;;;0.95;0.80;;;22.00;57.60;;;;;;6192076;28;23328;-67
2022/07/14 12:30:57;;;;;;;1.33;0.90;;;22.00;57.60;;;;;;6195368;28;20109;-67
2022/07/14 12:33:59;;;;;;;2.00;1.00;;;22.00;57.60;;;;;;6198052;28;20034;-67
2022/07/14 12:37:02;;;;;;;1.08;0.75;;;22.00;57.60;;;;;;6197750;28;20113;-68
2022/07/14 12:40:04;;;;;;;1.52;0.85;;;22.00;57.60;;;;;;6190083;28;20069;-67
2022/07/14 12:43:08;;;;;;;2.13;0.80;;;22.00;57.60;;;;;;6198066;28;20019;-67
2022/07/14 12:46:20;;;;;;;2.63;0.85;;;22.00;57.60;;;;;;6186419;28;20034;-67
2022/07/14 12:49:21;;;;;;;1.65;0.95;;;22.00;57.60;;;;;;6189864;28;20520;-67
2022/07/14 12:52:22;;;;;;;0.82;0.70;;;22.00;57.60;;;;;;6192302;28;20035;-66
2022/07/14 12:55:37;;;;;;;1.42;0.93;;;22.00;57.70;;;;;;6197723;28;20026;-67
2022/07/14 12:58:38;;;;;;;1.50;0.90;;;22.00;57.60;;;;;;6198251;28;20436;-67
2022/07/14 13:01:52;;;;;;;1.80;0.90;;;22.00;57.60;;;;;;6188063;28;20129;-67
2022/07/14 13:05:01;;;;;;;1.83;0.80;;;22.00;57.60;;;;;;6196525;28;20440;-68
2022/07/14 13:08:21;;;;;;;0.93;0.75;;;22.00;57.60;;;;;;6197383;28;20416;-68
2022/07/14 13:11:28;;;;;;;0.90;0.60;;;22.00;57.60;;;;;;6196429;28;20045;-68
2022/07/14 13:14:29;;;;;;;1.25;0.68;;;22.00;57.60;;;;;;6179695;28;20048;-68
2022/07/14 13:17:51;;;;;;;1.33;0.80;;;22.00;57.70;;;;;;6193807;28;20030;-67
2022/07/14 13:20:53;;;;;;;0.93;0.80;;;22.00;57.70;;;;;;6192685;28;20113;-68
2022/07/14 13:23:53;;;;;;;1.48;0.90;;;22.00;57.70;;;;;;6192165;28;20477;-67
2022/07/14 13:27:15;;;;;;;1.02;0.63;;;22.00;57.70;;;;;;6192398;28;20033;-67
2022/07/14 13:30:16;;;;;;;1.73;0.93;;;22.00;57.70;;;;;;6192792;28;20445;-67
2022/07/14 13:33:17;;;;;;;1.38;0.75;;;22.00;57.70;;;;;;6189526;28;20084;-67
2022/07/14 13:36:19;;;;;;;1.00;0.75;;;22.00;57.70;;;;;;6189982;28;20022;-67
2022/07/14 13:39:20;;;;;;;1.17;0.82;;;22.00;57.70;;;;;;6193604;28;20030;-67
2022/07/14 13:42:21;;;;;;;0.60;0.57;;;22.00;57.70;;;;;;6192549;28;20018;-67
2022/07/14 13:45:22;;;;;;;0.80;0.70;;;22.00;57.70;;;;;;6193539;28;20037;-67
2022/07/14 13:48:23;;;;;;;1.17;0.80;;;22.00;57.70;;;;;;6193109;28;20066;-67
2022/07/14 13:54:43;;;;;;;0.75;0.60;;;22.00;57.80;;;;;;6160446;28;20030;-67
2022/07/14 13:57:43;;;;;;;0.77;0.68;;;22.00;57.80;;;;;;6188231;28;20085;-67
2022/07/14 14:00:44;;;;;;;1.08;0.82;;;22.00;57.80;;;;;;6188499;28;20501;-67
2022/07/14 14:03:46;;;;;;;1.00;0.90;;;22.00;57.70;;;;;;6189735;28;20036;-67
2022/07/14 14:06:47;;;;;;;1.73;0.90;;;22.00;57.70;;;;;;6187079;28;20192;-67
2022/07/14 14:09:48;;;;;;;0.70;0.55;;;21.90;57.70;;;;;;6188459;28;20046;-68
2022/07/14 14:12:49;;;;;;;0.82;0.60;;;21.90;57.70;;;;;;6188242;28;20072;-68
2022/07/14 14:15:50;;;;;;;0.70;0.60;;;21.90;57.60;;;;;;6187145;28;20053;-68
2022/07/14 14:18:51;;;;;;;0.90;0.70;;;22.00;58.50;;;;;;6190229;28;20054;-67
2022/07/14 14:21:51;;;;;;;0.93;0.70;;;22.00;57.80;;;;;;6188550;28;20037;-67
2022/07/14 14:24:52;;;;;;;1.40;0.68;;;22.00;57.80;;;;;;6188521;28;20045;-66
2022/07/14 14:27:53;;;;;;;0.70;0.60;;;22.00;57.80;;;;;;6175307;28;20046;-67
2022/07/14 14:30:53;;;;;;;1.23;0.90;;;21.90;57.70;;;;;;6187253;28;20026;-67
2022/07/14 14:33:54;;;;;;;2.58;0.77;;;22.00;57.80;;;;;;6187948;28;20088;-66
2022/07/14 14:36:55;;;;;;;0.82;0.68;;;21.90;57.70;;;;;;6188131;28;20112;-67
2022/07/14 14:39:55;;;;;;;0.63;0.52;;;21.90;57.70;;;;;;6187915;28;20026;-67
2022/07/14 14:42:56;;;;;;;0.70;0.70;;;21.90;57.70;;;;;;6186902;28;20026;-67
2022/07/14 14:45:57;;;;;;;1.15;0.80;;;22.00;57.80;;;;;;6187963;28;20489;-66
2022/07/14 14:48:57;;;;;;;0.90;0.63;;;21.90;57.70;;;;;;6187970;28;20058;-67
2022/07/14 14:51:58;;;;;;;0.75;0.70;;;22.00;57.80;;;;;;6184973;28;20481;-66
2022/07/14 14:54:59;;;;;;;0.95;0.68;;;22.00;57.80;;;;;;6186553;28;20030;-66
2022/07/14 14:57:59;;;;;;;1.13;0.55;;;22.00;57.80;;;;;;6187609;28;20030;-66
2022/07/14 15:01:00;;;;;;;1.08;0.80;;;22.00;57.90;;;;;;6187614;28;20121;-66
2022/07/14 15:04:00;;;;;;;1.00;0.65;;;22.00;57.90;;;;;;6186717;28;20027;-66
2022/07/14 15:07:01;;;;;;;1.05;0.70;;;22.00;57.80;;;;;;6187723;28;20478;-66
2022/07/14 15:10:03;;;;;;;0.68;0.60;;;22.00;57.80;;;;;;6186618;28;20039;-67
2022/07/14 15:13:04;;;;;;;1.08;0.70;;;22.00;57.80;;;;;;6187527;28;20030;-68
2022/07/14 15:16:05;;;;;;;1.20;0.70;;;21.90;57.70;;;;;;6187889;28;20030;-68
2022/07/14 15:19:05;;;;;;;1.08;0.77;;;21.90;57.70;;;;;;6187491;28;20029;-66
2022/07/14 15:22:11;;;;;;;3.63;0.75;;;21.90;57.70;;;;;;6176766;28;20459;-68
2022/07/14 15:25:12;;;;;;;4.93;0.85;;;22.00;58.40;;;;;;6184226;28;20027;-69
2022/07/14 15:28:12;;;;;;;0.90;0.70;;;22.00;58.00;;;;;;6191754;28;20041;-68
2022/07/14 15:31:15;;;;;;;1.02;0.70;;;22.00;57.90;;;;;;6191051;28;20669;-68
2022/07/14 15:34:17;;;;;;;1.35;0.80;;;22.00;57.80;;;;;;6192765;28;20148;-69
2022/07/14 15:37:18;;;;;;;1.60;0.88;;;22.00;57.90;;;;;;6192616;28;20034;-68
2022/07/14 15:43:37;;;;;;;0.75;0.60;;;22.00;57.80;;;;;;6192734;28;20030;-68
2022/07/14 15:46:39;;;;;;;1.45;0.80;;;22.00;57.70;;;;;;6193792;28;20126;-68
2022/07/14 15:49:39;;;;;;;1.80;0.98;;;22.00;58.40;;;;;;6191673;28;20062;-69
2022/07/14 15:52:41;;;;;;;0.95;0.70;;;22.00;57.60;;;;;;6190335;28;20436;-68
2022/07/14 15:55:41;;;;;;;1.13;0.63;;;22.00;57.50;;;;;;6194470;28;20026;-68
2022/07/14 15:58:42;;;;;;;1.30;0.80;;;22.00;57.40;;;;;;6194752;28;20045;-68
2022/07/14 16:01:43;;;;;;;1.33;0.70;;;22.00;57.40;;;;;;6181987;28;20085;-68
2022/07/14 16:04:43;;;;;;;2.13;1.15;;;22.00;57.30;;;;;;6191796;28;20104;-68
2022/07/14 16:07:44;;;;;;;1.60;0.90;;;22.00;57.30;;;;;;6192250;28;20038;-68